sensor_id;sensor_type;location;lat;lon;timestamp;pressure;altitude;pressure_sealevel;temperature;humidity
50242;BME280;36126;43.222;27.874;2023-08-31T00:02:05;100341.06;;;24.68;100.00
50242;BME280;36126;43.222;27.874;2023-08-31T00:04:30;100332.53;;;24.68;100.00
50242;BME280;36126;43.222;27.874;2023-08-31T00:06:56;100338.00;;;24.73;100.00
50242;BME280;36126;43.222;27.874;2023-08-31T00:09:22;100335.91;;;24.53;100.00
50242;BME280;36126;43.222;27.874;2023-08-31T00:11:49;100334.09;;;24.39;100.00
50242;BME280;36126;43.222;27.874;2023-08-31T00:14:15;100333.88;;;24.53;100.00
50242;BME280;36126;43.222;27.874;2023-08-31T00:16:40;100334.56;;;24.50;100.00
50242;BME280;36126;43.222;27.874;2023-08-31T00:19:06;100328.84;;;24.59;100.00
50242;BME280;36126;43.222;27.874;2023-08-31T00:21:31;100328.91;;;24.41;100.00
50242;BME280;36126;43.222;27.874;2023-08-31T00:23:56;100328.72;;;24.47;100.00
50242;BME280;36126;43.222;27.874;2023-08-31T00:26:22;100332.22;;;24.52;100.00
50242;BME280;36126;43.222;27.874;2023-08-31T00:28:47;100342.41;;;24.53;100.00
50242;BME280;36126;43.222;27.874;2023-08-31T00:31:13;100340.25;;;24.50;100.00
50242;BME280;36126;43.222;27.874;2023-08-31T00:33:39;100339.31;;;24.28;100.00
50242;BME280;36126;43.222;27.874;2023-08-31T00:36:04;100336.00;;;24.26;100.00
50242;BME280;36126;43.222;27.874;2023-08-31T00:38:30;100330.97;;;24.32;100.00
50242;BME280;36126;43.222;27.874;2023-08-31T00:40:56;100330.47;;;24.30;100.00
50242;BME280;36126;43.222;27.874;2023-08-31T00:43:21;100336.78;;;24.36;100.00
50242;BME280;36126;43.222;27.874;2023-08-31T00:45:48;100345.75;;;24.47;100.00
50242;BME280;36126;43.222;27.874;2023-08-31T00:48:17;100347.09;;;24.49;100.00
50242;BME280;36126;43.222;27.874;2023-08-31T00:50:43;100349.59;;;24.51;100.00
50242;BME280;36126;43.222;27.874;2023-08-31T00:53:09;100352.94;;;24.44;100.00
50242;BME280;36126;43.222;27.874;2023-08-31T00:55:34;100356.50;;;24.32;100.00
50242;BME280;36126;43.222;27.874;2023-08-31T00:58:00;100362.03;;;24.20;100.00
50242;BME280;36126;43.222;27.874;2023-08-31T01:00:32;100366.22;;;24.22;100.00
50242;BME280;36126;43.222;27.874;2023-08-31T01:03:05;100375.91;;;24.04;100.00
50242;BME280;36126;43.222;27.874;2023-08-31T01:05:45;100373.94;;;24.04;100.00
50242;BME280;36126;43.222;27.874;2023-08-31T01:10:48;100369.91;;;23.97;100.00
50242;BME280;36126;43.222;27.874;2023-08-31T01:13:21;100377.78;;;23.91;100.00
50242;BME280;36126;43.222;27.874;2023-08-31T01:15:50;100371.41;;;23.85;100.00
50242;BME280;36126;43.222;27.874;2023-08-31T01:18:18;100377.41;;;23.84;100.00
50242;BME280;36126;43.222;27.874;2023-08-31T01:23:22;100377.56;;;23.87;100.00
50242;BME280;36126;43.222;27.874;2023-08-31T01:25:52;100387.09;;;23.91;100.00
50242;BME280;36126;43.222;27.874;2023-08-31T01:28:17;100387.63;;;23.93;100.00
50242;BME280;36126;43.222;27.874;2023-08-31T01:30:43;100381.28;;;23.88;100.00
50242;BME280;36126;43.222;27.874;2023-08-31T01:33:08;100388.72;;;23.75;100.00
50242;BME280;36126;43.222;27.874;2023-08-31T01:35:37;100386.56;;;23.81;100.00
50242;BME280;36126;43.222;27.874;2023-08-31T01:38:04;100397.25;;;23.75;100.00
50242;BME280;36126;43.222;27.874;2023-08-31T01:43:02;100401.75;;;23.76;100.00
50242;BME280;36126;43.222;27.874;2023-08-31T01:45:31;100399.59;;;23.73;100.00
50242;BME280;36126;43.222;27.874;2023-08-31T01:47:58;100402.41;;;23.64;100.00
50242;BME280;36126;43.222;27.874;2023-08-31T01:50:24;100406.91;;;23.65;100.00
50242;BME280;36126;43.222;27.874;2023-08-31T01:52:50;100405.22;;;23.64;100.00
50242;BME280;36126;43.222;27.874;2023-08-31T01:55:18;100407.59;;;23.62;100.00
50242;BME280;36126;43.222;27.874;2023-08-31T01:57:43;100399.41;;;23.78;100.00
50242;BME280;36126;43.222;27.874;2023-08-31T02:00:09;100402.41;;;23.82;100.00
50242;BME280;36126;43.222;27.874;2023-08-31T02:02:35;100402.94;;;23.84;100.00
50242;BME280;36126;43.222;27.874;2023-08-31T02:05:01;100409.59;;;23.79;100.00
50242;BME280;36126;43.222;27.874;2023-08-31T02:07:27;100405.25;;;23.82;100.00
50242;BME280;36126;43.222;27.874;2023-08-31T02:09:52;100400.25;;;23.87;100.00
50242;BME280;36126;43.222;27.874;2023-08-31T02:12:18;100409.25;;;23.81;100.00
50242;BME280;36126;43.222;27.874;2023-08-31T02:14:43;100413.28;;;23.80;100.00
50242;BME280;36126;43.222;27.874;2023-08-31T02:17:09;100409.09;;;23.77;100.00
50242;BME280;36126;43.222;27.874;2023-08-31T02:19:34;100401.59;;;23.81;100.00
50242;BME280;36126;43.222;27.874;2023-08-31T02:21:59;100407.63;;;23.88;100.00
50242;BME280;36126;43.222;27.874;2023-08-31T02:24:25;100406.94;;;23.74;100.00
50242;BME280;36126;43.222;27.874;2023-08-31T02:26:51;100399.25;;;23.74;100.00
50242;BME280;36126;43.222;27.874;2023-08-31T02:29:17;100411.41;;;23.75;100.00
50242;BME280;36126;43.222;27.874;2023-08-31T02:31:42;100405.22;;;23.64;100.00
50242;BME280;36126;43.222;27.874;2023-08-31T02:34:08;100407.59;;;23.80;100.00
50242;BME280;36126;43.222;27.874;2023-08-31T02:36:33;100410.78;;;23.87;100.00
50242;BME280;36126;43.222;27.874;2023-08-31T02:38:59;100414.44;;;23.87;100.00
50242;BME280;36126;43.222;27.874;2023-08-31T02:41:24;100417.31;;;23.96;100.00
50242;BME280;36126;43.222;27.874;2023-08-31T02:43:50;100414.78;;;23.94;100.00
50242;BME280;36126;43.222;27.874;2023-08-31T02:46:16;100419.47;;;23.90;100.00
50242;BME280;36126;43.222;27.874;2023-08-31T02:48:43;100423.81;;;23.88;100.00
50242;BME280;36126;43.222;27.874;2023-08-31T02:51:09;100417.13;;;24.01;100.00
50242;BME280;36126;43.222;27.874;2023-08-31T02:53:34;100410.47;;;23.88;100.00
50242;BME280;36126;43.222;27.874;2023-08-31T02:56:00;100418.16;;;23.97;100.00
50242;BME280;36126;43.222;27.874;2023-08-31T02:58:25;100421.97;;;24.09;100.00
50242;BME280;36126;43.222;27.874;2023-08-31T03:00:51;100420.47;;;23.94;100.00
50242;BME280;36126;43.222;27.874;2023-08-31T03:03:18;100423.50;;;23.89;100.00
50242;BME280;36126;43.222;27.874;2023-08-31T03:05:44;100417.81;;;23.89;100.00
50242;BME280;36126;43.222;27.874;2023-08-31T03:08:10;100411.59;;;23.87;100.00
50242;BME280;36126;43.222;27.874;2023-08-31T03:10:36;100406.41;;;23.81;100.00
50242;BME280;36126;43.222;27.874;2023-08-31T03:13:01;100407.44;;;23.76;100.00
50242;BME280;36126;43.222;27.874;2023-08-31T03:15:27;100413.25;;;23.62;100.00
50242;BME280;36126;43.222;27.874;2023-08-31T03:17:52;100416.09;;;23.62;100.00
50242;BME280;36126;43.222;27.874;2023-08-31T03:20:18;100423.25;;;23.59;100.00
50242;BME280;36126;43.222;27.874;2023-08-31T03:22:43;100428.09;;;23.59;100.00
50242;BME280;36126;43.222;27.874;2023-08-31T03:25:09;100419.94;;;23.57;100.00
50242;BME280;36126;43.222;27.874;2023-08-31T03:27:34;100427.25;;;23.58;100.00
50242;BME280;36126;43.222;27.874;2023-08-31T03:30:01;100425.84;;;23.30;100.00
50242;BME280;36126;43.222;27.874;2023-08-31T03:32:26;100433.03;;;23.36;100.00
50242;BME280;36126;43.222;27.874;2023-08-31T03:34:51;100427.53;;;23.31;100.00
50242;BME280;36126;43.222;27.874;2023-08-31T03:37:17;100435.00;;;23.26;100.00
50242;BME280;36126;43.222;27.874;2023-08-31T03:39:42;100436.00;;;23.22;100.00
50242;BME280;36126;43.222;27.874;2023-08-31T03:42:08;100431.22;;;23.00;100.00
50242;BME280;36126;43.222;27.874;2023-08-31T03:44:34;100432.69;;;22.88;100.00
50242;BME280;36126;43.222;27.874;2023-08-31T03:47:00;100436.56;;;23.01;100.00
50242;BME280;36126;43.222;27.874;2023-08-31T03:49:25;100438.19;;;23.25;100.00
50242;BME280;36126;43.222;27.874;2023-08-31T03:51:51;100441.59;;;23.53;100.00
50242;BME280;36126;43.222;27.874;2023-08-31T03:54:18;100438.47;;;23.81;100.00
50242;BME280;36126;43.222;27.874;2023-08-31T03:56:44;100437.84;;;24.02;100.00
50242;BME280;36126;43.222;27.874;2023-08-31T03:59:09;100433.34;;;24.18;100.00
50242;BME280;36126;43.222;27.874;2023-08-31T04:01:35;100433.66;;;24.25;100.00
50242;BME280;36126;43.222;27.874;2023-08-31T04:04:00;100450.84;;;24.20;100.00
50242;BME280;36126;43.222;27.874;2023-08-31T04:06:26;100449.19;;;24.10;100.00
50242;BME280;36126;43.222;27.874;2023-08-31T04:08:53;100457.03;;;23.96;100.00
50242;BME280;36126;43.222;27.874;2023-08-31T04:11:19;100457.84;;;23.97;100.00
50242;BME280;36126;43.222;27.874;2023-08-31T04:13:44;100463.72;;;24.00;100.00
50242;BME280;36126;43.222;27.874;2023-08-31T04:16:10;100468.03;;;24.15;100.00
50242;BME280;36126;43.222;27.874;2023-08-31T04:18:35;100476.38;;;24.03;100.00
50242;BME280;36126;43.222;27.874;2023-08-31T04:21:01;100493.25;;;23.99;100.00
50242;BME280;36126;43.222;27.874;2023-08-31T04:23:28;100495.19;;;23.81;100.00
50242;BME280;36126;43.222;27.874;2023-08-31T04:25:54;100493.19;;;23.82;100.00
50242;BME280;36126;43.222;27.874;2023-08-31T04:28:20;100501.25;;;23.97;100.00
50242;BME280;36126;43.222;27.874;2023-08-31T04:30:46;100492.72;;;23.97;100.00
50242;BME280;36126;43.222;27.874;2023-08-31T04:33:11;100495.06;;;23.95;100.00
50242;BME280;36126;43.222;27.874;2023-08-31T04:35:37;100497.75;;;24.00;100.00
50242;BME280;36126;43.222;27.874;2023-08-31T04:38:03;100501.25;;;24.23;100.00
50242;BME280;36126;43.222;27.874;2023-08-31T04:40:28;100502.94;;;24.42;100.00
50242;BME280;36126;43.222;27.874;2023-08-31T04:42:57;100496.94;;;24.61;100.00
50242;BME280;36126;43.222;27.874;2023-08-31T04:45:22;100498.59;;;24.44;100.00
50242;BME280;36126;43.222;27.874;2023-08-31T04:47:48;100497.06;;;24.73;100.00
50242;BME280;36126;43.222;27.874;2023-08-31T04:50:16;100501.75;;;24.78;100.00
50242;BME280;36126;43.222;27.874;2023-08-31T04:52:42;100492.19;;;24.91;100.00
50242;BME280;36126;43.222;27.874;2023-08-31T04:55:08;100491.34;;;25.00;100.00
50242;BME280;36126;43.222;27.874;2023-08-31T04:57:34;100490.31;;;25.04;100.00
50242;BME280;36126;43.222;27.874;2023-08-31T04:59:59;100494.97;;;25.09;100.00
50242;BME280;36126;43.222;27.874;2023-08-31T05:02:25;100501.50;;;25.01;100.00
50242;BME280;36126;43.222;27.874;2023-08-31T05:04:51;100496.81;;;25.13;100.00
50242;BME280;36126;43.222;27.874;2023-08-31T05:07:16;100503.91;;;25.37;100.00
50242;BME280;36126;43.222;27.874;2023-08-31T05:09:42;100501.03;;;25.46;100.00
50242;BME280;36126;43.222;27.874;2023-08-31T05:12:08;100512.22;;;25.51;100.00
50242;BME280;36126;43.222;27.874;2023-08-31T05:14:33;100508.28;;;25.35;100.00
50242;BME280;36126;43.222;27.874;2023-08-31T05:17:06;100508.84;;;25.58;100.00
50242;BME280;36126;43.222;27.874;2023-08-31T05:19:31;100517.03;;;25.51;100.00
50242;BME280;36126;43.222;27.874;2023-08-31T05:21:57;100508.16;;;25.82;100.00
50242;BME280;36126;43.222;27.874;2023-08-31T05:24:23;100522.13;;;26.05;100.00
50242;BME280;36126;43.222;27.874;2023-08-31T05:26:49;100523.66;;;26.23;100.00
50242;BME280;36126;43.222;27.874;2023-08-31T05:29:15;100526.78;;;26.30;100.00
50242;BME280;36126;43.222;27.874;2023-08-31T05:31:40;100521.97;;;26.22;100.00
50242;BME280;36126;43.222;27.874;2023-08-31T05:34:06;100521.63;;;26.24;100.00
50242;BME280;36126;43.222;27.874;2023-08-31T05:36:32;100519.06;;;26.10;100.00
50242;BME280;36126;43.222;27.874;2023-08-31T05:38:57;100520.03;;;26.14;100.00
50242;BME280;36126;43.222;27.874;2023-08-31T05:41:23;100524.19;;;26.59;100.00
50242;BME280;36126;43.222;27.874;2023-08-31T05:43:49;100513.66;;;27.39;100.00
50242;BME280;36126;43.222;27.874;2023-08-31T05:46:14;100510.44;;;27.77;100.00
50242;BME280;36126;43.222;27.874;2023-08-31T05:48:40;100513.13;;;28.23;100.00
50242;BME280;36126;43.222;27.874;2023-08-31T05:51:06;100516.34;;;28.09;100.00
50242;BME280;36126;43.222;27.874;2023-08-31T05:53:33;100518.25;;;28.46;100.00
50242;BME280;36126;43.222;27.874;2023-08-31T05:55:59;100522.78;;;28.47;100.00
50242;BME280;36126;43.222;27.874;2023-08-31T05:58:35;100537.31;;;28.42;100.00
50242;BME280;36126;43.222;27.874;2023-08-31T06:01:01;100534.59;;;28.74;100.00
50242;BME280;36126;43.222;27.874;2023-08-31T06:03:28;100537.22;;;28.38;100.00
50242;BME280;36126;43.222;27.874;2023-08-31T06:05:55;100531.38;;;28.47;100.00
50242;BME280;36126;43.222;27.874;2023-08-31T06:08:20;100542.53;;;28.52;100.00
50242;BME280;36126;43.222;27.874;2023-08-31T06:10:46;100541.34;;;28.12;100.00
50242;BME280;36126;43.222;27.874;2023-08-31T06:13:12;100542.44;;;28.08;100.00
50242;BME280;36126;43.222;27.874;2023-08-31T06:15:37;100553.00;;;28.07;100.00
50242;BME280;36126;43.222;27.874;2023-08-31T06:18:04;100558.47;;;27.88;100.00
50242;BME280;36126;43.222;27.874;2023-08-31T06:20:29;100551.94;;;27.99;100.00
50242;BME280;36126;43.222;27.874;2023-08-31T06:22:55;100556.03;;;28.27;100.00
50242;BME280;36126;43.222;27.874;2023-08-31T06:25:21;100560.13;;;28.26;100.00
50242;BME280;36126;43.222;27.874;2023-08-31T06:27:48;100563.28;;;28.37;100.00
50242;BME280;36126;43.222;27.874;2023-08-31T06:30:14;100570.56;;;28.75;100.00
50242;BME280;36126;43.222;27.874;2023-08-31T06:32:46;100570.53;;;28.87;100.00
50242;BME280;36126;43.222;27.874;2023-08-31T06:35:12;100568.34;;;28.96;100.00
50242;BME280;36126;43.222;27.874;2023-08-31T06:37:38;100571.34;;;28.88;100.00
50242;BME280;36126;43.222;27.874;2023-08-31T06:40:04;100567.50;;;28.67;100.00
50242;BME280;36126;43.222;27.874;2023-08-31T06:42:30;100580.72;;;28.60;100.00
50242;BME280;36126;43.222;27.874;2023-08-31T06:44:56;100571.69;;;28.58;100.00
50242;BME280;36126;43.222;27.874;2023-08-31T06:47:22;100569.69;;;28.87;100.00
50242;BME280;36126;43.222;27.874;2023-08-31T06:49:49;100577.47;;;28.61;100.00
50242;BME280;36126;43.222;27.874;2023-08-31T06:52:15;100568.91;;;28.74;100.00
50242;BME280;36126;43.222;27.874;2023-08-31T06:54:41;100581.13;;;28.87;100.00
50242;BME280;36126;43.222;27.874;2023-08-31T06:57:06;100573.38;;;28.87;100.00
50242;BME280;36126;43.222;27.874;2023-08-31T06:59:32;100577.09;;;29.04;100.00
50242;BME280;36126;43.222;27.874;2023-08-31T07:01:58;100580.09;;;28.79;100.00
50242;BME280;36126;43.222;27.874;2023-08-31T07:04:23;100571.50;;;28.79;100.00
50242;BME280;36126;43.222;27.874;2023-08-31T07:06:49;100575.38;;;29.15;100.00
50242;BME280;36126;43.222;27.874;2023-08-31T07:09:14;100580.00;;;29.20;100.00
50242;BME280;36126;43.222;27.874;2023-08-31T07:11:40;100573.13;;;29.37;100.00
50242;BME280;36126;43.222;27.874;2023-08-31T07:14:05;100574.59;;;29.78;100.00
50242;BME280;36126;43.222;27.874;2023-08-31T07:16:31;100579.97;;;29.80;100.00
50242;BME280;36126;43.222;27.874;2023-08-31T07:18:56;100589.41;;;29.80;100.00
50242;BME280;36126;43.222;27.874;2023-08-31T07:21:22;100587.13;;;29.86;100.00
50242;BME280;36126;43.222;27.874;2023-08-31T07:23:47;100590.84;;;30.22;100.00
50242;BME280;36126;43.222;27.874;2023-08-31T07:26:13;100590.28;;;30.52;100.00
50242;BME280;36126;43.222;27.874;2023-08-31T07:28:38;100596.34;;;30.66;100.00
50242;BME280;36126;43.222;27.874;2023-08-31T07:31:04;100594.75;;;30.49;100.00
50242;BME280;36126;43.222;27.874;2023-08-31T07:33:31;100595.97;;;30.68;100.00
50242;BME280;36126;43.222;27.874;2023-08-31T07:35:58;100588.72;;;30.74;100.00
50242;BME280;36126;43.222;27.874;2023-08-31T07:38:24;100592.63;;;31.25;100.00
50242;BME280;36126;43.222;27.874;2023-08-31T07:40:49;100588.31;;;31.58;100.00
50242;BME280;36126;43.222;27.874;2023-08-31T07:43:15;100583.94;;;31.64;100.00
50242;BME280;36126;43.222;27.874;2023-08-31T07:45:41;100596.69;;;31.66;100.00
50242;BME280;36126;43.222;27.874;2023-08-31T07:48:06;100606.75;;;32.03;100.00
50242;BME280;36126;43.222;27.874;2023-08-31T07:50:32;100601.31;;;32.21;100.00
50242;BME280;36126;43.222;27.874;2023-08-31T07:52:59;100593.44;;;32.45;100.00
50242;BME280;36126;43.222;27.874;2023-08-31T07:55:25;100594.47;;;32.60;100.00
50242;BME280;36126;43.222;27.874;2023-08-31T07:57:51;100592.53;;;31.64;100.00
50242;BME280;36126;43.222;27.874;2023-08-31T08:00:16;100591.34;;;32.15;100.00
50242;BME280;36126;43.222;27.874;2023-08-31T08:02:44;100587.66;;;32.71;100.00
50242;BME280;36126;43.222;27.874;2023-08-31T08:05:10;100588.53;;;33.10;100.00
50242;BME280;36126;43.222;27.874;2023-08-31T08:07:35;100592.16;;;33.37;100.00
50242;BME280;36126;43.222;27.874;2023-08-31T08:10:01;100595.41;;;33.77;100.00
50242;BME280;36126;43.222;27.874;2023-08-31T08:12:28;100578.75;;;34.00;100.00
50242;BME280;36126;43.222;27.874;2023-08-31T08:15:01;100592.16;;;33.78;100.00
50242;BME280;36126;43.222;27.874;2023-08-31T08:17:27;100587.03;;;32.01;100.00
50242;BME280;36126;43.222;27.874;2023-08-31T08:19:53;100585.38;;;32.00;100.00
50242;BME280;36126;43.222;27.874;2023-08-31T08:22:19;100573.47;;;32.86;100.00
50242;BME280;36126;43.222;27.874;2023-08-31T08:24:45;100568.34;;;33.06;100.00
50242;BME280;36126;43.222;27.874;2023-08-31T08:27:10;100579.31;;;32.93;100.00
50242;BME280;36126;43.222;27.874;2023-08-31T08:29:36;100571.81;;;33.60;100.00
50242;BME280;36126;43.222;27.874;2023-08-31T08:32:02;100573.13;;;33.73;100.00
50242;BME280;36126;43.222;27.874;2023-08-31T08:34:28;100580.03;;;34.10;100.00
50242;BME280;36126;43.222;27.874;2023-08-31T08:36:54;100578.22;;;33.46;100.00
50242;BME280;36126;43.222;27.874;2023-08-31T08:39:20;100569.41;;;32.60;100.00
50242;BME280;36126;43.222;27.874;2023-08-31T08:41:46;100571.88;;;31.54;100.00
50242;BME280;36126;43.222;27.874;2023-08-31T08:44:12;100569.72;;;31.71;100.00
50242;BME280;36126;43.222;27.874;2023-08-31T08:46:40;100575.94;;;32.27;100.00
50242;BME280;36126;43.222;27.874;2023-08-31T08:49:06;100573.47;;;32.55;100.00
50242;BME280;36126;43.222;27.874;2023-08-31T08:51:32;100571.38;;;32.83;100.00
50242;BME280;36126;43.222;27.874;2023-08-31T08:53:59;100578.75;;;32.53;100.00
50242;BME280;36126;43.222;27.874;2023-08-31T08:56:26;100569.91;;;32.09;100.00
50242;BME280;36126;43.222;27.874;2023-08-31T08:58:52;100585.78;;;32.26;100.00
50242;BME280;36126;43.222;27.874;2023-08-31T09:01:17;100586.56;;;31.99;100.00
50242;BME280;36126;43.222;27.874;2023-08-31T09:03:48;100581.03;;;31.87;100.00
50242;BME280;36126;43.222;27.874;2023-08-31T09:06:14;100583.03;;;31.60;100.00
50242;BME280;36126;43.222;27.874;2023-08-31T09:08:40;100592.88;;;31.59;100.00
50242;BME280;36126;43.222;27.874;2023-08-31T09:11:07;100587.88;;;31.79;100.00
50242;BME280;36126;43.222;27.874;2023-08-31T09:13:33;100580.03;;;31.76;100.00
50242;BME280;36126;43.222;27.874;2023-08-31T09:15:59;100579.34;;;32.09;100.00
50242;BME280;36126;43.222;27.874;2023-08-31T09:18:29;100583.19;;;31.67;100.00
50242;BME280;36126;43.222;27.874;2023-08-31T09:20:56;100581.44;;;31.85;100.00
50242;BME280;36126;43.222;27.874;2023-08-31T09:23:22;100572.91;;;32.16;100.00
50242;BME280;36126;43.222;27.874;2023-08-31T09:25:49;100580.03;;;32.56;100.00
50242;BME280;36126;43.222;27.874;2023-08-31T09:28:19;100575.66;;;32.66;100.00
50242;BME280;36126;43.222;27.874;2023-08-31T09:30:49;100584.81;;;32.45;100.00
50242;BME280;36126;43.222;27.874;2023-08-31T09:33:18;100584.22;;;32.32;100.00
50242;BME280;36126;43.222;27.874;2023-08-31T09:38:15;100578.56;;;32.12;100.00
50242;BME280;36126;43.222;27.874;2023-08-31T09:40:40;100578.44;;;32.28;100.00
50242;BME280;36126;43.222;27.874;2023-08-31T09:43:06;100573.22;;;32.37;100.00
50242;BME280;36126;43.222;27.874;2023-08-31T09:45:32;100582.97;;;32.60;100.00
50242;BME280;36126;43.222;27.874;2023-08-31T09:47:59;100579.97;;;32.79;100.00
50242;BME280;36126;43.222;27.874;2023-08-31T09:50:26;100578.81;;;32.87;100.00
50242;BME280;36126;43.222;27.874;2023-08-31T09:52:53;100582.50;;;32.84;100.00
50242;BME280;36126;43.222;27.874;2023-08-31T09:55:21;100590.81;;;32.63;100.00
50242;BME280;36126;43.222;27.874;2023-08-31T09:57:47;100584.22;;;32.32;100.00
50242;BME280;36126;43.222;27.874;2023-08-31T10:00:13;100594.97;;;32.38;100.00
50242;BME280;36126;43.222;27.874;2023-08-31T10:02:41;100580.19;;;32.36;97.89
50242;BME280;36126;43.222;27.874;2023-08-31T10:05:07;100593.19;;;32.57;95.37
50242;BME280;36126;43.222;27.874;2023-08-31T10:07:33;100586.19;;;32.85;92.41
50242;BME280;36126;43.222;27.874;2023-08-31T10:09:59;100592.91;;;32.66;97.38
50242;BME280;36126;43.222;27.874;2023-08-31T10:12:26;100582.84;;;33.17;96.22
50242;BME280;36126;43.222;27.874;2023-08-31T10:14:52;100588.25;;;33.60;96.73
50242;BME280;36126;43.222;27.874;2023-08-31T10:17:19;100597.22;;;33.54;95.51
50242;BME280;36126;43.222;27.874;2023-08-31T10:19:45;100594.75;;;33.49;93.79
50242;BME280;36126;43.222;27.874;2023-08-31T10:22:11;100603.13;;;33.69;92.62
50242;BME280;36126;43.222;27.874;2023-08-31T10:27:21;100600.63;;;34.09;85.96
50242;BME280;36126;43.222;27.874;2023-08-31T10:29:47;100596.34;;;33.92;84.74
50242;BME280;36126;43.222;27.874;2023-08-31T10:32:19;100598.34;;;34.36;84.86
50242;BME280;36126;43.222;27.874;2023-08-31T10:35:03;100606.28;;;34.53;83.51
50242;BME280;36126;43.222;27.874;2023-08-31T10:37:30;100599.72;;;34.01;87.32
50242;BME280;36126;43.222;27.874;2023-08-31T10:40:08;100598.75;;;34.31;87.44
50242;BME280;36126;43.222;27.874;2023-08-31T10:42:46;100597.44;;;34.28;88.78
50242;BME280;36126;43.222;27.874;2023-08-31T10:45:19;100596.59;;;34.24;90.42
50242;BME280;36126;43.222;27.874;2023-08-31T10:47:46;100599.56;;;34.31;88.24
50242;BME280;36126;43.222;27.874;2023-08-31T10:50:16;100590.50;;;34.33;80.42
50242;BME280;36126;43.222;27.874;2023-08-31T10:52:45;100587.22;;;34.34;87.54
50242;BME280;36126;43.222;27.874;2023-08-31T10:55:11;100589.41;;;34.59;89.12
50242;BME280;36126;43.222;27.874;2023-08-31T10:57:37;100593.94;;;34.60;90.30
50242;BME280;36126;43.222;27.874;2023-08-31T11:00:04;100593.06;;;34.49;86.77
50242;BME280;36126;43.222;27.874;2023-08-31T11:05:09;100597.69;;;34.05;90.33
50242;BME280;36126;43.222;27.874;2023-08-31T11:07:35;100592.13;;;34.30;89.73
50242;BME280;36126;43.222;27.874;2023-08-31T11:10:14;100585.31;;;34.67;87.62
50242;BME280;36126;43.222;27.874;2023-08-31T11:12:40;100589.34;;;34.45;84.05
50242;BME280;36126;43.222;27.874;2023-08-31T11:15:06;100592.75;;;34.68;74.92
50242;BME280;36126;43.222;27.874;2023-08-31T11:17:33;100595.94;;;34.45;69.03
50242;BME280;36126;43.222;27.874;2023-08-31T11:19:59;100584.78;;;34.44;73.36
50242;BME280;36126;43.222;27.874;2023-08-31T11:22:26;100596.63;;;35.05;81.48
50242;BME280;36126;43.222;27.874;2023-08-31T11:24:53;100597.56;;;34.43;90.68
50242;BME280;36126;43.222;27.874;2023-08-31T11:27:20;100593.38;;;34.33;89.52
50242;BME280;36126;43.222;27.874;2023-08-31T11:29:47;100593.19;;;34.11;91.12
50242;BME280;36126;43.222;27.874;2023-08-31T11:32:14;100598.28;;;33.77;88.50
50242;BME280;36126;43.222;27.874;2023-08-31T11:34:40;100604.28;;;34.02;86.57
50242;BME280;36126;43.222;27.874;2023-08-31T11:37:07;100604.22;;;33.95;84.53
50242;BME280;36126;43.222;27.874;2023-08-31T11:39:33;100607.84;;;34.36;83.33
50242;BME280;36126;43.222;27.874;2023-08-31T11:41:59;100604.69;;;34.67;82.83
50242;BME280;36126;43.222;27.874;2023-08-31T11:44:25;100612.53;;;34.70;83.07
50242;BME280;36126;43.222;27.874;2023-08-31T11:46:51;100603.59;;;34.93;84.90
50242;BME280;36126;43.222;27.874;2023-08-31T11:49:18;100607.19;;;34.75;87.12
50242;BME280;36126;43.222;27.874;2023-08-31T11:51:44;100619.09;;;34.04;93.95
50242;BME280;36126;43.222;27.874;2023-08-31T11:54:10;100612.69;;;33.77;97.03
50242;BME280;36126;43.222;27.874;2023-08-31T11:56:45;100606.75;;;34.03;97.11
50242;BME280;36126;43.222;27.874;2023-08-31T11:59:17;100612.38;;;33.85;96.71
50242;BME280;36126;43.222;27.874;2023-08-31T12:01:45;100608.84;;;33.62;98.79
50242;BME280;36126;43.222;27.874;2023-08-31T12:04:14;100608.50;;;33.70;96.51
50242;BME280;36126;43.222;27.874;2023-08-31T12:06:40;100611.22;;;33.52;96.12
50242;BME280;36126;43.222;27.874;2023-08-31T12:09:10;100609.06;;;33.08;100.00
50242;BME280;36126;43.222;27.874;2023-08-31T12:11:35;100608.50;;;33.70;100.00
50242;BME280;36126;43.222;27.874;2023-08-31T12:14:02;100606.84;;;34.84;100.00
50242;BME280;36126;43.222;27.874;2023-08-31T12:16:35;100608.13;;;34.90;100.00
50242;BME280;36126;43.222;27.874;2023-08-31T12:19:02;100603.09;;;34.80;100.00
50242;BME280;36126;43.222;27.874;2023-08-31T12:21:28;100604.00;;;34.95;100.00
50242;BME280;36126;43.222;27.874;2023-08-31T12:23:54;100612.78;;;35.28;100.00
50242;BME280;36126;43.222;27.874;2023-08-31T12:26:20;100607.06;;;35.38;100.00
50242;BME280;36126;43.222;27.874;2023-08-31T12:28:45;100595.16;;;34.55;100.00
50242;BME280;36126;43.222;27.874;2023-08-31T12:31:11;100595.31;;;34.18;100.00
50242;BME280;36126;43.222;27.874;2023-08-31T12:33:37;100601.06;;;33.69;100.00
50242;BME280;36126;43.222;27.874;2023-08-31T12:36:02;100590.66;;;33.16;100.00
50242;BME280;36126;43.222;27.874;2023-08-31T12:38:28;100590.53;;;33.05;100.00
50242;BME280;36126;43.222;27.874;2023-08-31T12:40:53;100593.63;;;32.59;100.00
50242;BME280;36126;43.222;27.874;2023-08-31T12:43:19;100605.94;;;32.29;100.00